Time;durP1;ratioP1;P1;durP2;ratioP2;P2;SDS_P1;SDS_P2;PMS_P1;PMS_P2;Temp;Humidity;BMP_temperature;BMP_pressure;BME280_temperature;BME280_humidity;BME280_pressure;Samples;Min_cycle;Max_cycle;Signal;HPM_P1;HPM_P2
2021/06/26 00:00:16;;;;;;;0.10;0.10;;;16.20;99.90;;;;;;5013213;28;20025;-74
2021/06/26 00:02:42;;;;;;;0.20;0.20;;;16.20;99.90;;;;;;5011902;28;20490;-74
2021/06/26 00:05:10;;;;;;;0.10;0.10;;;16.10;99.90;;;;;;5013549;28;20025;-75
2021/06/26 00:07:35;;;;;;;0.10;0.10;;;16.00;99.90;;;;;;5012845;28;20049;-74
2021/06/26 00:10:03;;;;;;;0.10;0.10;;;16.20;99.90;;;;;;5013110;28;20053;-74
2021/06/26 00:12:28;;;;;;;0.25;0.25;;;16.30;99.90;;;;;;5011605;28;20117;-74
2021/06/26 00:14:54;;;;;;;0.03;0.03;;;16.10;99.90;;;;;;5011891;28;20113;-74
2021/06/26 00:17:20;;;;;;;0.10;0.10;;;16.10;99.90;;;;;;5012827;28;20033;-74
2021/06/26 00:19:46;;;;;;;0.17;0.17;;;16.20;99.90;;;;;;5012975;28;20102;-74
2021/06/26 00:22:11;;;;;;;0.10;0.10;;;16.30;99.90;;;;;;5012705;28;20116;-75
2021/06/26 00:24:37;;;;;;;0.10;0.10;;;16.00;99.90;;;;;;5012882;28;20033;-74
2021/06/26 00:27:03;;;;;;;0.10;0.10;;;16.00;99.90;;;;;;5012940;28;20022;-75
2021/06/26 00:29:29;;;;;;;0.20;0.20;;;16.20;99.90;;;;;;5012712;28;20097;-75
2021/06/26 00:31:55;;;;;;;0.20;0.20;;;16.10;99.90;;;;;;5011439;28;20050;-74
2021/06/26 00:34:20;;;;;;;0.10;0.10;;;16.00;99.90;;;;;;5013257;28;20022;-74
2021/06/26 00:36:46;;;;;;;0.10;0.10;;;16.00;99.90;;;;;;5012762;28;20069;-74
2021/06/26 00:39:12;;;;;;;0.20;0.20;;;15.90;99.90;;;;;;5012494;28;20022;-75
2021/06/26 00:41:38;;;;;;;0.08;0.08;;;16.00;99.90;;;;;;5011318;28;20030;-75
2021/06/26 00:44:10;;;;;;;0.10;0.10;;;16.10;99.90;;;;;;4995109;28;20108;-74
2021/06/26 00:46:37;;;;;;;0.10;0.10;;;16.10;99.90;;;;;;5012413;28;20107;-74
2021/06/26 00:49:04;;;;;;;0.15;0.15;;;16.10;99.90;;;;;;5012339;28;20041;-74
2021/06/26 00:51:30;;;;;;;0.22;0.22;;;15.90;99.90;;;;;;5012400;28;20034;-74
2021/06/26 00:53:57;;;;;;;0.10;0.10;;;15.70;99.90;;;;;;5012388;28;20045;-75
2021/06/26 00:56:24;;;;;;;0.10;0.10;;;15.60;99.90;;;;;;5012423;28;20034;-75
2021/06/26 00:58:51;;;;;;;0.20;0.20;;;15.50;99.90;;;;;;5012381;28;20409;-74
2021/06/26 01:01:17;;;;;;;0.10;0.10;;;15.50;99.90;;;;;;5012275;28;20032;-74
2021/06/26 01:03:45;;;;;;;0.10;0.10;;;15.70;99.90;;;;;;5012263;28;20021;-74
2021/06/26 01:06:13;;;;;;;0.10;0.10;;;15.70;99.90;;;;;;5012189;28;20022;-74
2021/06/26 01:08:39;;;;;;;0.10;0.10;;;15.60;99.90;;;;;;5012543;28;20026;-74
2021/06/26 01:11:05;;;;;;;0.10;0.10;;;15.60;99.90;;;;;;5011017;28;20524;-75
2021/06/26 01:13:32;;;;;;;0.10;0.10;;;15.50;99.90;;;;;;5010908;28;20033;-75
2021/06/26 01:15:58;;;;;;;0.10;0.10;;;15.40;99.90;;;;;;5011021;28;20057;-74
2021/06/26 01:18:23;;;;;;;0.20;0.20;;;15.30;99.90;;;;;;5012123;28;20064;-74
2021/06/26 01:20:49;;;;;;;0.10;0.10;;;15.30;99.90;;;;;;5010958;28;20034;-74
2021/06/26 01:23:15;;;;;;;0.10;0.10;;;15.40;99.90;;;;;;5012082;28;20398;-74
2021/06/26 01:25:41;;;;;;;0.43;0.43;;;15.50;99.90;;;;;;5010867;28;20482;-74
2021/06/26 01:28:07;;;;;;;0.17;0.17;;;15.40;99.90;;;;;;5010959;28;20104;-74
2021/06/26 01:30:35;;;;;;;0.17;0.17;;;15.40;99.90;;;;;;5012169;28;20033;-74
2021/06/26 01:33:03;;;;;;;0.10;0.10;;;15.50;99.90;;;;;;5011172;28;20029;-74
2021/06/26 01:35:29;;;;;;;0.10;0.10;;;15.30;99.90;;;;;;5013065;28;20394;-74
2021/06/26 01:37:56;;;;;;;0.10;0.10;;;15.30;99.90;;;;;;5012800;28;20029;-78
2021/06/26 01:40:24;;;;;;;0.13;0.13;;;15.50;99.90;;;;;;5011962;28;20108;-77
2021/06/26 01:42:51;;;;;;;0.20;0.20;;;15.60;99.90;;;;;;5012860;28;20057;-76
2021/06/26 01:45:18;;;;;;;0.20;0.20;;;15.60;99.90;;;;;;5011541;28;20034;-76
2021/06/26 01:47:58;;;;;;;0.10;0.10;;;15.60;99.90;;;;;;5010937;28;20025;-77
2021/06/26 01:50:26;;;;;;;0.17;0.17;;;15.70;99.90;;;;;;5010985;28;20054;-75
2021/06/26 01:52:53;;;;;;;0.20;0.20;;;15.80;99.90;;;;;;5011865;28;20069;-75
2021/06/26 01:55:20;;;;;;;5.88;1.65;;;15.70;99.90;;;;;;5011742;28;20049;-75
2021/06/26 01:57:47;;;;;;;0.10;0.10;;;15.50;99.90;;;;;;4994085;28;20026;-75
2021/06/26 02:00:14;;;;;;;0.17;0.17;;;15.40;99.90;;;;;;5010736;28;20080;-75
2021/06/26 02:02:40;;;;;;;0.30;0.30;;;15.10;99.90;;;;;;5010480;28;20486;-75
2021/06/26 02:05:09;;;;;;;0.10;0.10;;;15.10;99.90;;;;;;5010769;28;20386;-75
2021/06/26 02:07:35;;;;;;;0.22;0.22;;;14.90;99.90;;;;;;5011959;28;20030;-75
2021/06/26 02:10:02;;;;;;;1.02;0.47;;;14.70;99.90;;;;;;5010805;28;20037;-74
2021/06/26 02:12:28;;;;;;;0.25;0.25;;;14.60;99.90;;;;;;5011776;28;20022;-75
2021/06/26 02:14:54;;;;;;;0.20;0.20;;;14.30;99.90;;;;;;5011691;28;20529;-75
2021/06/26 02:17:21;;;;;;;0.20;0.20;;;14.30;99.90;;;;;;5013236;28;20061;-75
2021/06/26 02:19:47;;;;;;;0.10;0.10;;;14.30;99.90;;;;;;5015149;28;20026;-75
2021/06/26 02:22:14;;;;;;;0.10;0.10;;;14.40;99.90;;;;;;5015049;28;20069;-75
2021/06/26 02:24:40;;;;;;;0.10;0.10;;;14.50;99.90;;;;;;5013835;28;20037;-75
2021/06/26 02:27:06;;;;;;;0.10;0.10;;;14.80;99.90;;;;;;5015040;28;20105;-75
2021/06/26 02:29:33;;;;;;;0.10;0.10;;;15.00;99.90;;;;;;5014858;28;20030;-75
2021/06/26 02:31:59;;;;;;;0.93;0.65;;;15.20;99.90;;;;;;5013781;28;20037;-75
2021/06/26 02:34:25;;;;;;;0.10;0.10;;;15.20;99.90;;;;;;5013565;28;20072;-75
2021/06/26 02:36:52;;;;;;;0.10;0.10;;;15.30;99.90;;;;;;5013315;28;20025;-75
2021/06/26 02:39:18;;;;;;;0.17;0.17;;;15.30;99.90;;;;;;5014792;28;20466;-75
2021/06/26 02:41:44;;;;;;;0.13;0.13;;;15.40;99.90;;;;;;5014696;28;20056;-75
2021/06/26 02:44:10;;;;;;;0.10;0.10;;;15.60;99.90;;;;;;5013803;28;20084;-75
2021/06/26 02:46:36;;;;;;;0.10;0.10;;;15.50;99.90;;;;;;5013340;28;20022;-75
2021/06/26 02:49:03;;;;;;;0.10;0.10;;;15.40;99.90;;;;;;5014701;28;20383;-75
2021/06/26 02:51:29;;;;;;;0.10;0.10;;;15.20;99.90;;;;;;5013206;28;20061;-75
2021/06/26 02:53:54;;;;;;;0.13;0.13;;;15.10;99.90;;;;;;5013403;28;20060;-75
2021/06/26 02:56:20;;;;;;;0.10;0.10;;;14.90;99.90;;;;;;5014468;28;20026;-75
2021/06/26 02:58:46;;;;;;;0.10;0.10;;;15.10;99.90;;;;;;5014370;28;20212;-75
2021/06/26 03:01:12;;;;;;;0.10;0.10;;;15.10;99.90;;;;;;5014766;28;20102;-75
2021/06/26 03:03:37;;;;;;;0.30;0.30;;;15.30;99.90;;;;;;5014203;28;20363;-75
2021/06/26 03:06:03;;;;;;;0.10;0.10;;;15.50;99.90;;;;;;5014128;28;20037;-75
2021/06/26 03:08:29;;;;;;;0.10;0.10;;;15.60;99.90;;;;;;5014186;28;20061;-75
2021/06/26 03:10:55;;;;;;;0.10;0.10;;;15.40;99.90;;;;;;5014265;28;20144;-75
2021/06/26 03:13:21;;;;;;;0.10;0.10;;;15.20;99.90;;;;;;5014264;28;20117;-75
2021/06/26 03:15:46;;;;;;;0.10;0.10;;;15.30;99.90;;;;;;5014156;28;20030;-75
2021/06/26 03:18:13;;;;;;;0.10;0.10;;;15.50;99.90;;;;;;5012673;28;20386;-75
2021/06/26 03:20:39;;;;;;;0.10;0.10;;;15.40;99.90;;;;;;5012720;28;20029;-75
2021/06/26 03:23:05;;;;;;;0.20;0.20;;;15.50;99.90;;;;;;5012779;28;20179;-75
2021/06/26 03:25:31;;;;;;;0.10;0.10;;;15.20;99.90;;;;;;5013936;28;20393;-75
2021/06/26 03:27:57;;;;;;;0.20;0.20;;;15.00;99.90;;;;;;5011470;28;20022;-75
2021/06/26 03:30:23;;;;;;;0.10;0.10;;;15.00;99.90;;;;;;5013797;28;20026;-75
2021/06/26 03:32:48;;;;;;;0.20;0.20;;;15.20;99.90;;;;;;5012439;28;20048;-75
2021/06/26 03:35:14;;;;;;;0.20;0.20;;;15.20;99.90;;;;;;5013746;28;20022;-75
2021/06/26 03:37:41;;;;;;;0.20;0.20;;;15.20;99.90;;;;;;5012287;28;20029;-75
2021/06/26 03:40:07;;;;;;;0.10;0.10;;;15.40;99.90;;;;;;5012438;28;20026;-75
2021/06/26 03:42:33;;;;;;;0.10;0.10;;;15.70;99.90;;;;;;4995920;28;20034;-75
2021/06/26 03:44:59;;;;;;;0.10;0.10;;;15.70;99.90;;;;;;5013475;28;20664;-75
2021/06/26 03:47:26;;;;;;;0.30;0.30;;;15.70;99.90;;;;;;5012060;28;20116;-75
2021/06/26 03:49:52;;;;;;;0.10;0.10;;;15.70;99.90;;;;;;5012289;28;20045;-75
2021/06/26 03:52:17;;;;;;;0.45;0.40;;;15.40;99.90;;;;;;5012154;28;20031;-75
2021/06/26 03:54:43;;;;;;;0.10;0.10;;;15.30;99.90;;;;;;5013426;28;20026;-75
2021/06/26 03:57:09;;;;;;;0.10;0.10;;;15.30;99.90;;;;;;5013229;28;20014;-75
2021/06/26 03:59:35;;;;;;;0.10;0.10;;;15.20;99.90;;;;;;5012029;28;20018;-75
2021/06/26 04:02:06;;;;;;;0.20;0.20;;;15.20;99.90;;;;;;5013272;28;20022;-75
2021/06/26 04:04:36;;;;;;;0.10;0.10;;;15.30;99.90;;;;;;5013230;28;20039;-75
2021/06/26 04:07:03;;;;;;;0.20;0.20;;;15.20;99.90;;;;;;5011751;28;20418;-75
2021/06/26 04:09:29;;;;;;;0.25;0.25;;;15.30;99.90;;;;;;5013100;28;20018;-75
2021/06/26 04:11:55;;;;;;;0.10;0.10;;;15.40;99.90;;;;;;4995454;28;20391;-75
2021/06/26 04:14:21;;;;;;;0.10;0.10;;;15.60;99.90;;;;;;5013172;28;20033;-75
2021/06/26 04:16:47;;;;;;;0.10;0.10;;;15.60;99.90;;;;;;5011809;28;20026;-75
2021/06/26 04:19:14;;;;;;;0.10;0.10;;;15.60;99.90;;;;;;5012813;28;20030;-75
2021/06/26 04:21:43;;;;;;;0.50;0.50;;;15.70;99.90;;;;;;5011557;28;20038;-75
2021/06/26 04:24:09;;;;;;;0.10;0.10;;;15.60;99.90;;;;;;5012819;28;20022;-75
2021/06/26 04:26:35;;;;;;;0.10;0.10;;;15.60;99.90;;;;;;5011743;28;20037;-75
2021/06/26 04:29:01;;;;;;;0.10;0.10;;;15.60;99.90;;;;;;5013019;28;20018;-75
2021/06/26 04:31:27;;;;;;;0.20;0.20;;;15.60;99.90;;;;;;5012719;28;20029;-75
2021/06/26 04:33:53;;;;;;;0.20;0.20;;;15.60;99.90;;;;;;5012719;28;20022;-75
2021/06/26 04:36:19;;;;;;;0.10;0.10;;;15.70;99.90;;;;;;5012812;28;20057;-75
2021/06/26 04:38:45;;;;;;;0.52;0.40;;;15.70;99.90;;;;;;5010879;28;20034;-75
2021/06/26 04:41:12;;;;;;;0.52;0.52;;;15.60;99.90;;;;;;5012700;28;20060;-75
2021/06/26 04:43:38;;;;;;;0.10;0.10;;;15.70;99.90;;;;;;5011300;28;20419;-75
2021/06/26 04:46:08;;;;;;;0.10;0.10;;;15.90;99.90;;;;;;5012639;28;20470;-75
2021/06/26 04:48:35;;;;;;;0.10;0.10;;;16.10;99.90;;;;;;5011195;28;20029;-75
2021/06/26 04:51:01;;;;;;;0.10;0.10;;;16.30;99.90;;;;;;5012609;28;20501;-75
2021/06/26 04:53:27;;;;;;;0.10;0.10;;;16.20;99.90;;;;;;5012420;28;20026;-75
2021/06/26 04:55:52;;;;;;;0.10;0.10;;;16.20;99.90;;;;;;5012276;28;20041;-75
2021/06/26 04:58:22;;;;;;;0.10;0.10;;;16.00;99.90;;;;;;5012499;28;20072;-75
2021/06/26 05:00:52;;;;;;;0.30;0.30;;;16.20;99.90;;;;;;5011104;28;20083;-75
2021/06/26 05:03:22;;;;;;;0.32;0.32;;;16.10;99.90;;;;;;5010975;28;20026;-75
2021/06/26 05:05:48;;;;;;;0.10;0.10;;;16.20;99.90;;;;;;5012207;28;20393;-75
2021/06/26 05:08:15;;;;;;;0.10;0.10;;;16.10;99.90;;;;;;4960436;23;20047;-77
2021/06/26 05:10:41;;;;;;;0.10;0.10;;;16.40;99.90;;;;;;4931985;29;20028;-77
2021/06/26 05:13:07;;;;;;;0.15;0.15;;;16.60;99.90;;;;;;5011267;28;20029;-77
2021/06/26 05:15:32;;;;;;;0.10;0.10;;;16.60;99.90;;;;;;5010986;28;20067;-77
2021/06/26 05:17:58;;;;;;;0.10;0.10;;;16.70;99.90;;;;;;4912909;29;20510;-77
2021/06/26 05:20:24;;;;;;;0.10;0.10;;;16.70;99.90;;;;;;4913011;29;20111;-77
2021/06/26 05:22:50;;;;;;;0.22;0.22;;;17.00;99.90;;;;;;4912899;29;20394;-77
2021/06/26 05:25:16;;;;;;;0.10;0.10;;;17.10;99.90;;;;;;4977900;28;20070;-77
2021/06/26 05:27:42;;;;;;;0.25;0.25;;;16.90;99.90;;;;;;5010439;28;20103;-78
2021/06/26 05:30:09;;;;;;;0.10;0.10;;;16.90;99.90;;;;;;4912960;29;20048;-78
2021/06/26 05:32:35;;;;;;;0.10;0.10;;;17.00;99.90;;;;;;4912789;29;20025;-77
2021/06/26 05:35:01;;;;;;;0.10;0.10;;;17.00;99.90;;;;;;4912825;29;20021;-78
2021/06/26 05:37:27;;;;;;;0.10;0.10;;;16.90;99.90;;;;;;4994146;28;20078;-77
2021/06/26 05:39:53;;;;;;;0.10;0.10;;;17.00;99.90;;;;;;4977645;28;20024;-77
2021/06/26 05:42:18;;;;;;;0.10;0.10;;;17.10;99.90;;;;;;4912938;29;20020;-77
2021/06/26 05:44:44;;;;;;;0.82;0.82;;;17.30;99.90;;;;;;4994154;28;20031;-78
2021/06/26 05:47:10;;;;;;;0.10;0.10;;;17.30;99.90;;;;;;5010248;28;20028;-78
2021/06/26 05:49:35;;;;;;;0.20;0.20;;;17.40;99.90;;;;;;4912629;29;20431;-77
2021/06/26 05:52:01;;;;;;;0.30;0.30;;;17.50;99.90;;;;;;4990512;28;20063;-77
2021/06/26 05:54:27;;;;;;;0.10;0.10;;;17.50;99.90;;;;;;4917524;28;20032;-77
2021/06/26 05:56:53;;;;;;;0.10;0.10;;;17.60;99.90;;;;;;4914580;29;20039;-78
2021/06/26 05:59:19;;;;;;;0.52;0.40;;;17.40;99.90;;;;;;4981274;28;20035;-77
2021/06/26 06:01:44;;;;;;;0.10;0.10;;;17.50;99.90;;;;;;4914766;29;20387;-78
2021/06/26 06:04:10;;;;;;;0.68;0.60;;;17.60;99.90;;;;;;4915562;29;20043;-78
2021/06/26 06:06:37;;;;;;;0.20;0.20;;;17.80;99.90;;;;;;4980558;28;20369;-77
2021/06/26 06:09:06;;;;;;;0.30;0.30;;;17.80;99.90;;;;;;4915524;29;20035;-77
2021/06/26 06:11:32;;;;;;;0.10;0.10;;;17.90;99.90;;;;;;4915645;29;20028;-77
2021/06/26 06:13:58;;;;;;;0.10;0.10;;;17.90;99.90;;;;;;4915650;29;20439;-78
2021/06/26 06:16:24;;;;;;;0.30;0.30;;;18.00;99.90;;;;;;4996641;28;20333;-77
2021/06/26 06:18:51;;;;;;;0.10;0.10;;;18.00;99.90;;;;;;4964648;28;20028;-77
2021/06/26 06:21:17;;;;;;;0.20;0.20;;;18.20;99.90;;;;;;4980987;28;20488;-76
2021/06/26 06:23:43;;;;;;;0.10;0.10;;;18.20;99.90;;;;;;4915365;29;20097;-78
2021/06/26 06:26:09;;;;;;;1.35;0.98;;;18.30;99.90;;;;;;4915536;29;20029;-77
2021/06/26 06:28:35;;;;;;;0.10;0.10;;;18.30;99.90;;;;;;4980373;28;20035;-78
2021/06/26 06:31:01;;;;;;;0.43;0.43;;;18.20;99.90;;;;;;4915273;29;20030;-78
2021/06/26 06:33:27;;;;;;;1.33;1.08;;;18.30;99.90;;;;;;4980595;28;20040;-77
2021/06/26 06:35:53;;;;;;;0.85;0.85;;;18.30;99.90;;;;;;4915421;29;20028;-77
2021/06/26 06:38:19;;;;;;;0.30;0.20;;;18.30;99.90;;;;;;4980594;28;20123;-78
2021/06/26 06:40:45;;;;;;;0.30;0.30;;;18.40;99.90;;;;;;4914789;28;20024;-78
2021/06/26 06:43:11;;;;;;;0.80;0.70;;;18.40;99.90;;;;;;4917029;29;20106;-77
2021/06/26 06:45:37;;;;;;;0.20;0.20;;;18.50;99.90;;;;;;4975011;28;20468;-78
2021/06/26 06:48:03;;;;;;;0.45;0.45;;;18.50;99.90;;;;;;4914824;29;20029;-77
2021/06/26 06:50:29;;;;;;;3.83;0.57;;;18.60;99.90;;;;;;4980416;28;20028;-78
2021/06/26 06:52:56;;;;;;;0.10;0.10;;;18.70;99.90;;;;;;4915120;29;20562;-77
2021/06/26 06:55:22;;;;;;;2.67;0.93;;;18.80;99.90;;;;;;4914709;29;20535;-78
2021/06/26 06:57:48;;;;;;;0.52;0.52;;;18.80;99.90;;;;;;4914864;29;20115;-78
2021/06/26 07:00:14;;;;;;;0.52;0.52;;;19.00;99.90;;;;;;4915150;29;20029;-78
2021/06/26 07:02:40;;;;;;;0.52;0.45;;;19.00;99.90;;;;;;4914737;29;20535;-78
2021/06/26 07:05:07;;;;;;;4.32;1.42;;;19.10;99.90;;;;;;4914657;29;20120;-77
2021/06/26 07:07:33;;;;;;;0.82;0.82;;;19.10;99.90;;;;;;4914648;29;20036;-77
2021/06/26 07:09:58;;;;;;;0.10;0.10;;;19.30;99.90;;;;;;4914998;29;20031;-78
2021/06/26 07:12:24;;;;;;;0.10;0.10;;;19.40;99.90;;;;;;4914714;29;20062;-77
2021/06/26 07:14:50;;;;;;;1.85;1.75;;;19.60;99.90;;;;;;4979949;28;20052;-77
2021/06/26 07:17:16;;;;;;;0.10;0.10;;;19.80;99.90;;;;;;4979712;28;20098;-78
2021/06/26 07:19:41;;;;;;;0.55;0.55;;;19.90;99.90;;;;;;4914680;29;20086;-78
2021/06/26 07:22:07;;;;;;;1.55;1.45;;;19.90;99.90;;;;;;4914626;29;20028;-77
2021/06/26 07:24:33;;;;;;;0.50;0.50;;;19.90;99.90;;;;;;4914615;29;20036;-77
2021/06/26 07:26:59;;;;;;;0.88;0.80;;;19.90;99.90;;;;;;4979820;28;20039;-77
2021/06/26 07:29:24;;;;;;;0.30;0.30;;;20.00;99.90;;;;;;4914837;29;20511;-78
2021/06/26 07:31:50;;;;;;;0.20;0.20;;;19.90;99.90;;;;;;4981958;28;20027;-77
2021/06/26 07:34:16;;;;;;;0.75;0.45;;;19.80;99.90;;;;;;4933549;29;20463;-79
2021/06/26 07:36:42;;;;;;;0.10;0.10;;;20.10;99.90;;;;;;4933409;29;20028;-78
2021/06/26 07:39:08;;;;;;;0.10;0.10;;;20.30;99.90;;;;;;4983928;28;20579;-77
2021/06/26 07:41:34;;;;;;;0.35;0.35;;;20.30;99.90;;;;;;4914625;29;20354;-78
2021/06/26 07:44:00;;;;;;;1.15;0.98;;;20.50;99.90;;;;;;4979596;28;20059;-77
2021/06/26 07:46:25;;;;;;;0.82;0.65;;;20.70;99.90;;;;;;4978945;28;20032;-78
2021/06/26 07:48:51;;;;;;;0.10;0.10;;;20.90;99.60;;;;;;4963317;28;20436;-76
2021/06/26 07:51:17;;;;;;;0.00;0.00;;;20.80;99.90;;;;;;5012684;28;20025;-76
2021/06/26 07:53:43;;;;;;;0.43;0.32;;;21.00;98.90;;;;;;4913056;29;20029;-76
2021/06/26 07:56:09;;;;;;;0.85;0.63;;;21.20;97.50;;;;;;4913985;29;20079;-76
2021/06/26 07:58:35;;;;;;;1.20;0.88;;;21.10;96.40;;;;;;4913567;29;20028;-76
2021/06/26 08:01:01;;;;;;;1.58;1.48;;;21.20;96.10;;;;;;4978890;28;20032;-77
2021/06/26 08:03:27;;;;;;;0.73;0.57;;;21.20;94.50;;;;;;4914066;29;20403;-76
2021/06/26 08:05:53;;;;;;;0.63;0.40;;;21.50;94.80;;;;;;4914041;29;20472;-77
2021/06/26 08:08:20;;;;;;;0.50;0.50;;;21.70;94.00;;;;;;4913792;29;20100;-76
2021/06/26 08:10:46;;;;;;;0.80;0.55;;;21.80;92.80;;;;;;4979159;28;20028;-76
2021/06/26 08:13:13;;;;;;;0.25;0.22;;;21.90;93.10;;;;;;4913039;29;20138;-76
2021/06/26 08:15:40;;;;;;;0.28;0.28;;;21.90;92.40;;;;;;4978820;28;20032;-77
2021/06/26 08:18:08;;;;;;;0.00;0.00;;;21.90;92.50;;;;;;4978784;28;20032;-77
2021/06/26 08:20:35;;;;;;;0.10;0.10;;;22.30;91.80;;;;;;4978727;28;20056;-77
2021/06/26 08:23:01;;;;;;;0.00;0.00;;;22.50;90.80;;;;;;4913911;29;20039;-77
2021/06/26 08:25:28;;;;;;;0.20;0.15;;;22.50;90.40;;;;;;4913673;29;20480;-76
2021/06/26 08:27:54;;;;;;;1.17;1.05;;;22.60;89.60;;;;;;4913547;29;20028;-77
2021/06/26 08:30:20;;;;;;;0.00;0.00;;;22.50;87.60;;;;;;4978689;28;20032;-77
2021/06/26 08:32:46;;;;;;;0.00;0.00;;;22.50;89.20;;;;;;4913625;29;20025;-76
2021/06/26 08:35:13;;;;;;;0.57;0.38;;;22.60;88.30;;;;;;4913679;29;20507;-76
2021/06/26 08:37:42;;;;;;;0.20;0.20;;;22.90;86.30;;;;;;4913479;29;20050;-77
2021/06/26 08:40:09;;;;;;;0.20;0.20;;;23.20;82.50;;;;;;4913563;29;20120;-77
2021/06/26 08:42:35;;;;;;;0.90;0.65;;;23.40;82.50;;;;;;4913388;29;20082;-76
2021/06/26 08:45:17;;;;;;;0.20;0.20;;;23.60;82.10;;;;;;4978293;28;20399;-76
2021/06/26 08:47:46;;;;;;;0.10;0.10;;;23.70;80.20;;;;;;4913463;29;20099;-76
2021/06/26 08:50:12;;;;;;;0.50;0.25;;;23.70;78.50;;;;;;4913448;29;20083;-76
2021/06/26 08:52:37;;;;;;;0.00;0.00;;;23.50;78.30;;;;;;4913652;28;20495;-76
2021/06/26 08:55:04;;;;;;;5.15;1.23;;;23.50;78.30;;;;;;4913433;29;20032;-77
2021/06/26 08:57:32;;;;;;;1.30;0.57;;;23.40;78.40;;;;;;4913357;29;20090;-76
2021/06/26 08:59:59;;;;;;;0.20;0.20;;;23.60;79.00;;;;;;4913360;29;20535;-76
2021/06/26 09:02:26;;;;;;;0.10;0.10;;;23.90;77.00;;;;;;4914034;29;20533;-77
2021/06/26 09:04:53;;;;;;;0.00;0.00;;;24.20;74.60;;;;;;4913284;29;20106;-77
2021/06/26 09:07:39;;;;;;;0.30;0.10;;;24.20;73.60;;;;;;4913177;29;20511;-76
2021/06/26 09:10:15;;;;;;;0.00;0.00;;;24.40;72.20;;;;;;4978098;28;20035;-76
2021/06/26 09:12:42;;;;;;;0.35;0.35;;;24.60;72.60;;;;;;4913086;29;20024;-77
2021/06/26 09:15:09;;;;;;;0.38;0.38;;;24.90;70.90;;;;;;4913666;29;20032;-77
2021/06/26 09:17:36;;;;;;;4.55;1.35;;;24.90;71.90;;;;;;4978005;28;20373;-76
2021/06/26 09:20:09;;;;;;;0.63;0.63;;;24.80;70.10;;;;;;4913081;29;20372;-76
2021/06/26 09:22:40;;;;;;;0.30;0.30;;;24.80;70.40;;;;;;4977930;28;20036;-77
2021/06/26 09:25:29;;;;;;;1.10;0.45;;;24.80;71.20;;;;;;4913999;29;20337;-76
2021/06/26 09:27:59;;;;;;;0.20;0.20;;;24.90;70.20;;;;;;4981786;28;20052;-76
2021/06/26 09:30:31;;;;;;;0.22;0.22;;;25.10;68.50;;;;;;4916328;29;20416;-77
2021/06/26 09:32:57;;;;;;;0.13;0.13;;;25.00;70.00;;;;;;4916478;29;20020;-77
2021/06/26 09:35:23;;;;;;;0.00;0.00;;;25.20;68.50;;;;;;4965903;28;20038;-77
2021/06/26 09:37:49;;;;;;;0.00;0.00;;;25.30;69.10;;;;;;4916104;29;20059;-77
2021/06/26 09:40:27;;;;;;;0.00;0.00;;;25.50;67.60;;;;;;4916179;29;20028;-76
2021/06/26 09:42:54;;;;;;;0.00;0.00;;;25.60;66.90;;;;;;4981570;28;20098;-77
2021/06/26 09:45:20;;;;;;;0.20;0.20;;;26.00;66.30;;;;;;4915918;29;20090;-76
2021/06/26 09:47:47;;;;;;;0.38;0.38;;;26.00;65.40;;;;;;4981506;28;20074;-76
2021/06/26 09:50:24;;;;;;;0.10;0.10;;;25.50;67.40;;;;;;4981510;28;20027;-77
2021/06/26 09:52:55;;;;;;;1.45;0.93;;;25.40;67.40;;;;;;4916009;29;20032;-76
2021/06/26 09:55:28;;;;;;;0.70;0.40;;;25.70;66.20;;;;;;4915865;29;20476;-76
2021/06/26 09:58:00;;;;;;;0.17;0.17;;;25.80;65.50;;;;;;4981282;28;20032;-77
2021/06/26 10:00:26;;;;;;;;;;;25.90;65.40;;;;;;4982069;28;20056;-77
2021/06/26 10:02:53;;;;;;;0.10;0.10;;;26.00;63.80;;;;;;4915767;29;19914;-77
2021/06/26 10:05:19;;;;;;;0.32;0.32;;;26.10;64.60;;;;;;4981285;28;20060;-77
2021/06/26 10:07:48;;;;;;;0.22;0.22;;;26.30;64.40;;;;;;4980985;28;20055;-77
2021/06/26 10:10:16;;;;;;;0.17;0.17;;;26.40;63.00;;;;;;4981324;28;20024;-77
2021/06/26 10:12:43;;;;;;;0.45;0.45;;;26.30;63.50;;;;;;4915857;29;20060;-76
2021/06/26 10:15:10;;;;;;;0.88;0.35;;;26.30;62.90;;;;;;4915700;29;20031;-76
2021/06/26 10:17:37;;;;;;;0.08;0.08;;;26.20;62.60;;;;;;4915557;29;20017;-77
2021/06/26 10:20:12;;;;;;;0.10;0.10;;;26.40;62.30;;;;;;4980956;28;20094;-76
2021/06/26 10:22:40;;;;;;;0.50;0.30;;;26.70;61.90;;;;;;4980981;28;20064;-77
2021/06/26 10:25:08;;;;;;;0.05;0.05;;;27.10;60.10;;;;;;4915733;29;20028;-77
2021/06/26 10:27:34;;;;;;;0.30;0.30;;;27.00;61.00;;;;;;4915155;29;20032;-78
2021/06/26 10:30:19;;;;;;;0.60;0.55;;;27.00;60.10;;;;;;4915601;29;20050;-76
2021/06/26 10:32:57;;;;;;;0.00;0.00;;;26.70;59.30;;;;;;4915250;29;20043;-77
2021/06/26 10:35:26;;;;;;;0.45;0.45;;;26.80;60.30;;;;;;4981018;28;20051;-77
2021/06/26 10:38:18;;;;;;;1.27;1.10;;;26.70;60.60;;;;;;4914722;29;20099;-77
2021/06/26 10:40:48;;;;;;;0.10;0.10;;;26.70;61.00;;;;;;4977847;28;20036;-76
2021/06/26 10:43:17;;;;;;;0.35;0.30;;;27.10;60.40;;;;;;4915151;29;20028;-77
2021/06/26 10:45:44;;;;;;;0.00;0.00;;;27.30;58.60;;;;;;4980490;28;20090;-77
2021/06/26 10:48:15;;;;;;;0.25;0.25;;;27.30;58.40;;;;;;4980350;28;20027;-77
2021/06/26 10:50:46;;;;;;;0.93;0.60;;;27.50;56.70;;;;;;4980265;28;20035;-77
2021/06/26 10:53:42;;;;;;;1.17;0.63;;;27.50;57.50;;;;;;4914998;29;20272;-77
2021/06/26 10:56:11;;;;;;;0.10;0.10;;;27.50;58.40;;;;;;4915091;28;20040;-77
2021/06/26 10:58:42;;;;;;;0.45;0.45;;;27.40;57.90;;;;;;4980019;28;20028;-77
2021/06/26 11:01:22;;;;;;;0.00;0.00;;;27.40;58.40;;;;;;4915005;29;20047;-77
2021/06/26 11:04:03;;;;;;;1.27;0.38;;;27.50;57.40;;;;;;4914780;29;20047;-76
2021/06/26 11:06:30;;;;;;;0.00;0.00;;;27.50;57.30;;;;;;4914799;29;20083;-76
2021/06/26 11:09:08;;;;;;;0.08;0.08;;;27.60;57.60;;;;;;4943337;23;20052;-74
2021/06/26 11:11:40;;;;;;;0.00;0.00;;;27.70;57.10;;;;;;4933736;29;20634;-74
2021/06/26 11:14:10;;;;;;;0.10;0.10;;;27.70;57.30;;;;;;4916636;28;20494;-74
2021/06/26 11:16:37;;;;;;;0.82;0.40;;;27.90;56.70;;;;;;4916962;29;20034;-74
2021/06/26 11:19:03;;;;;;;0.30;0.30;;;27.90;55.90;;;;;;4933642;29;20138;-75
2021/06/26 11:21:36;;;;;;;1.00;0.30;;;28.00;55.70;;;;;;4916688;28;20373;-74
2021/06/26 11:24:02;;;;;;;4.35;0.63;;;28.20;55.80;;;;;;4916793;28;20112;-74
2021/06/26 11:26:27;;;;;;;0.10;0.10;;;28.40;54.90;;;;;;4916763;29;20500;-74
2021/06/26 11:28:53;;;;;;;0.10;0.10;;;28.50;55.80;;;;;;4933402;29;20466;-74
2021/06/26 11:31:19;;;;;;;0.52;0.38;;;28.50;56.20;;;;;;4933455;29;20027;-74
2021/06/26 11:33:45;;;;;;;0.57;0.57;;;28.00;54.70;;;;;;4900586;29;20483;-74
2021/06/26 11:36:12;;;;;;;0.10;0.10;;;28.00;54.80;;;;;;4916629;29;20051;-73
2021/06/26 11:38:38;;;;;;;0.85;0.50;;;27.90;54.90;;;;;;4932171;29;20107;-74
2021/06/26 11:41:07;;;;;;;0.00;0.00;;;28.00;55.10;;;;;;4932073;29;20028;-74
2021/06/26 11:43:34;;;;;;;0.03;0.03;;;27.90;54.10;;;;;;4916354;29;20078;-74
2021/06/26 11:46:01;;;;;;;2.22;0.45;;;27.60;53.50;;;;;;4932205;28;20024;-74
2021/06/26 11:48:28;;;;;;;0.25;0.13;;;27.50;54.70;;;;;;4932122;29;20074;-74
2021/06/26 11:51:05;;;;;;;0.35;0.35;;;27.70;55.10;;;;;;4916300;29;20035;-74
2021/06/26 11:53:31;;;;;;;0.65;0.65;;;27.10;56.80;;;;;;4916060;29;20484;-74
2021/06/26 11:55:59;;;;;;;0.30;0.30;;;27.10;55.50;;;;;;4916050;29;20028;-74
2021/06/26 11:58:41;;;;;;;0.03;0.03;;;27.30;55.80;;;;;;4915640;29;20035;-74
2021/06/26 12:01:15;;;;;;;0.47;0.47;;;27.30;55.40;;;;;;4932903;29;20023;-74
2021/06/26 12:03:42;;;;;;;0.00;0.00;;;27.20;55.80;;;;;;4932833;29;20078;-74
2021/06/26 12:06:13;;;;;;;0.70;0.35;;;27.20;55.00;;;;;;4900168;29;20039;-74
2021/06/26 12:08:56;;;;;;;0.00;0.00;;;27.40;55.30;;;;;;4915595;28;20058;-74
2021/06/26 12:11:23;;;;;;;0.00;0.00;;;27.60;54.90;;;;;;4915880;29;20081;-74
2021/06/26 12:13:51;;;;;;;0.22;0.22;;;27.20;54.80;;;;;;4915704;29;20100;-74
2021/06/26 12:16:20;;;;;;;0.60;0.60;;;27.10;55.20;;;;;;4916429;28;20027;-74
2021/06/26 12:18:51;;;;;;;0.70;0.52;;;27.00;55.60;;;;;;4916274;28;20497;-77
2021/06/26 12:21:21;;;;;;;1.45;0.85;;;27.10;55.40;;;;;;4916370;29;20549;-74
2021/06/26 12:23:51;;;;;;;0.85;0.65;;;26.80;57.50;;;;;;4916277;29;20369;-75
2021/06/26 12:26:27;;;;;;;0.30;0.30;;;26.40;57.10;;;;;;4933176;28;20023;-76
2021/06/26 12:28:53;;;;;;;0.00;0.00;;;26.00;56.80;;;;;;4932479;29;20023;-77
2021/06/26 12:31:20;;;;;;;0.57;0.28;;;25.90;58.10;;;;;;4932886;28;20086;-75
2021/06/26 12:33:57;;;;;;;0.05;0.05;;;25.80;58.30;;;;;;4915539;29;20024;-73
2021/06/26 12:36:23;;;;;;;0.80;0.80;;;25.60;58.00;;;;;;4931436;29;20368;-74
2021/06/26 12:38:49;;;;;;;0.28;0.28;;;25.40;58.30;;;;;;4915314;29;20166;-74
2021/06/26 12:41:22;;;;;;;0.00;0.00;;;25.40;59.30;;;;;;4932476;29;20077;-74
2021/06/26 12:43:48;;;;;;;0.00;0.00;;;25.40;59.30;;;;;;4915354;29;20028;-74
2021/06/26 12:46:15;;;;;;;1.40;1.30;;;25.60;58.50;;;;;;4915281;29;20024;-74
2021/06/26 12:48:47;;;;;;;0.00;0.00;;;26.00;58.60;;;;;;4932428;29;20028;-74